sensor_id;sensor_type;location;lat;lon;timestamp;P1;durP1;ratioP1;P2;durP2;ratioP2
45316;SDS011;31053;55.870;37.592;2022-12-20T00:01:08;7.95;;;3.80;;
45316;SDS011;31053;55.870;37.592;2022-12-20T00:07:18;8.00;;;3.63;;
45316;SDS011;31053;55.870;37.592;2022-12-20T00:10:22;9.95;;;3.70;;
45316;SDS011;31053;55.870;37.592;2022-12-20T00:13:27;7.57;;;3.28;;
45316;SDS011;31053;55.870;37.592;2022-12-20T00:16:31;8.55;;;3.80;;
45316;SDS011;31053;55.870;37.592;2022-12-20T00:19:36;4.53;;;3.13;;
45316;SDS011;31053;55.870;37.592;2022-12-20T00:22:41;10.88;;;3.75;;
45316;SDS011;31053;55.870;37.592;2022-12-20T00:25:45;11.45;;;4.38;;
45316;SDS011;31053;55.870;37.592;2022-12-20T00:28:49;8.75;;;4.20;;
45316;SDS011;31053;55.870;37.592;2022-12-20T00:31:54;10.90;;;4.68;;
45316;SDS011;31053;55.870;37.592;2022-12-20T00:34:59;13.02;;;4.30;;
45316;SDS011;31053;55.870;37.592;2022-12-20T00:38:03;9.00;;;3.90;;
45316;SDS011;31053;55.870;37.592;2022-12-20T00:41:09;12.00;;;4.95;;
45316;SDS011;31053;55.870;37.592;2022-12-20T00:44:16;11.75;;;4.15;;
45316;SDS011;31053;55.870;37.592;2022-12-20T00:47:20;9.95;;;4.07;;
45316;SDS011;31053;55.870;37.592;2022-12-20T00:50:24;12.90;;;5.13;;
45316;SDS011;31053;55.870;37.592;2022-12-20T00:53:29;14.27;;;5.43;;
45316;SDS011;31053;55.870;37.592;2022-12-20T00:56:34;10.25;;;4.78;;
45316;SDS011;31053;55.870;37.592;2022-12-20T00:59:38;11.35;;;4.13;;
45316;SDS011;31053;55.870;37.592;2022-12-20T01:02:43;13.98;;;3.88;;
45316;SDS011;31053;55.870;37.592;2022-12-20T01:05:50;17.42;;;4.85;;
45316;SDS011;31053;55.870;37.592;2022-12-20T01:08:56;15.60;;;4.45;;
45316;SDS011;31053;55.870;37.592;2022-12-20T01:12:01;8.93;;;3.17;;
45316;SDS011;31053;55.870;37.592;2022-12-20T01:15:05;6.72;;;3.17;;
45316;SDS011;31053;55.870;37.592;2022-12-20T01:18:10;7.68;;;3.47;;
45316;SDS011;31053;55.870;37.592;2022-12-20T01:21:16;8.02;;;3.20;;
45316;SDS011;31053;55.870;37.592;2022-12-20T01:24:21;7.30;;;3.13;;
45316;SDS011;31053;55.870;37.592;2022-12-20T01:27:26;5.88;;;3.22;;
45316;SDS011;31053;55.870;37.592;2022-12-20T01:30:31;7.87;;;3.97;;
45316;SDS011;31053;55.870;37.592;2022-12-20T01:33:36;9.25;;;3.47;;
45316;SDS011;31053;55.870;37.592;2022-12-20T01:36:41;8.05;;;3.72;;
45316;SDS011;31053;55.870;37.592;2022-12-20T01:39:46;10.95;;;4.25;;
45316;SDS011;31053;55.870;37.592;2022-12-20T01:42:50;9.13;;;3.67;;
45316;SDS011;31053;55.870;37.592;2022-12-20T01:45:55;6.57;;;3.20;;
45316;SDS011;31053;55.870;37.592;2022-12-20T01:49:08;11.30;;;4.40;;
45316;SDS011;31053;55.870;37.592;2022-12-20T01:52:34;12.05;;;4.43;;
45316;SDS011;31053;55.870;37.592;2022-12-20T01:55:40;11.75;;;5.03;;
45316;SDS011;31053;55.870;37.592;2022-12-20T01:58:46;10.48;;;4.05;;
45316;SDS011;31053;55.870;37.592;2022-12-20T02:01:52;7.68;;;3.45;;
45316;SDS011;31053;55.870;37.592;2022-12-20T02:05:00;14.60;;;3.58;;
45316;SDS011;31053;55.870;37.592;2022-12-20T02:08:08;12.07;;;4.63;;
45316;SDS011;31053;55.870;37.592;2022-12-20T02:17:49;10.65;;;4.18;;
45316;SDS011;31053;55.870;37.592;2022-12-20T02:21:36;15.48;;;4.47;;
45316;SDS011;31053;55.870;37.592;2022-12-20T02:31:18;15.32;;;5.00;;
45316;SDS011;31053;55.870;37.592;2022-12-20T02:39:58;11.40;;;4.70;;
45316;SDS011;31053;55.870;37.592;2022-12-20T02:43:03;13.40;;;5.00;;
45316;SDS011;31053;55.870;37.592;2022-12-20T02:46:33;10.35;;;4.93;;
45316;SDS011;31053;55.870;37.592;2022-12-20T02:49:38;17.60;;;5.28;;
45316;SDS011;31053;55.870;37.592;2022-12-20T02:52:45;15.98;;;6.05;;
45316;SDS011;31053;55.870;37.592;2022-12-20T02:59:18;8.95;;;4.45;;
45316;SDS011;31053;55.870;37.592;2022-12-20T03:02:24;21.50;;;5.93;;
45316;SDS011;31053;55.870;37.592;2022-12-20T03:05:29;11.45;;;4.82;;
45316;SDS011;31053;55.870;37.592;2022-12-20T03:08:37;14.07;;;5.00;;
45316;SDS011;31053;55.870;37.592;2022-12-20T03:11:41;17.65;;;6.13;;
45316;SDS011;31053;55.870;37.592;2022-12-20T03:14:46;13.30;;;5.03;;
45316;SDS011;31053;55.870;37.592;2022-12-20T03:17:51;12.27;;;5.07;;
45316;SDS011;31053;55.870;37.592;2022-12-20T03:20:56;16.13;;;4.93;;
45316;SDS011;31053;55.870;37.592;2022-12-20T03:24:02;12.40;;;5.10;;
45316;SDS011;31053;55.870;37.592;2022-12-20T03:27:07;12.73;;;5.53;;
45316;SDS011;31053;55.870;37.592;2022-12-20T03:30:12;12.57;;;4.50;;
45316;SDS011;31053;55.870;37.592;2022-12-20T03:33:17;11.75;;;5.03;;
45316;SDS011;31053;55.870;37.592;2022-12-20T03:36:25;16.48;;;5.60;;
45316;SDS011;31053;55.870;37.592;2022-12-20T03:39:34;13.15;;;4.95;;
45316;SDS011;31053;55.870;37.592;2022-12-20T03:42:39;13.73;;;4.93;;
45316;SDS011;31053;55.870;37.592;2022-12-20T03:45:43;13.15;;;5.15;;
45316;SDS011;31053;55.870;37.592;2022-12-20T03:48:48;12.98;;;5.32;;
45316;SDS011;31053;55.870;37.592;2022-12-20T03:51:52;12.88;;;5.10;;
45316;SDS011;31053;55.870;37.592;2022-12-20T03:54:57;13.65;;;5.38;;
45316;SDS011;31053;55.870;37.592;2022-12-20T03:58:09;15.18;;;5.25;;
45316;SDS011;31053;55.870;37.592;2022-12-20T04:01:26;22.30;;;6.03;;
45316;SDS011;31053;55.870;37.592;2022-12-20T04:07:37;13.57;;;4.93;;
45316;SDS011;31053;55.870;37.592;2022-12-20T04:10:41;14.10;;;5.57;;
45316;SDS011;31053;55.870;37.592;2022-12-20T04:14:11;12.35;;;4.10;;
45316;SDS011;31053;55.870;37.592;2022-12-20T04:17:16;14.60;;;4.82;;
45316;SDS011;31053;55.870;37.592;2022-12-20T04:20:21;12.18;;;4.47;;
45316;SDS011;31053;55.870;37.592;2022-12-20T04:23:44;15.68;;;5.47;;
45316;SDS011;31053;55.870;37.592;2022-12-20T04:26:48;15.20;;;5.65;;
45316;SDS011;31053;55.870;37.592;2022-12-20T04:29:54;12.52;;;5.32;;
45316;SDS011;31053;55.870;37.592;2022-12-20T04:33:00;15.87;;;5.50;;
45316;SDS011;31053;55.870;37.592;2022-12-20T04:36:09;19.25;;;6.72;;
45316;SDS011;31053;55.870;37.592;2022-12-20T04:39:17;25.33;;;6.03;;
45316;SDS011;31053;55.870;37.592;2022-12-20T04:43:00;14.70;;;5.63;;
45316;SDS011;31053;55.870;37.592;2022-12-20T04:46:04;13.70;;;5.13;;
45316;SDS011;31053;55.870;37.592;2022-12-20T04:49:09;18.27;;;5.75;;
45316;SDS011;31053;55.870;37.592;2022-12-20T04:52:17;14.07;;;5.95;;
45316;SDS011;31053;55.870;37.592;2022-12-20T04:55:40;15.48;;;5.63;;
45316;SDS011;31053;55.870;37.592;2022-12-20T04:58:45;14.77;;;5.82;;
45316;SDS011;31053;55.870;37.592;2022-12-20T05:01:50;16.17;;;5.63;;
45316;SDS011;31053;55.870;37.592;2022-12-20T05:05:12;21.95;;;5.78;;
45316;SDS011;31053;55.870;37.592;2022-12-20T05:08:24;15.35;;;5.90;;
45316;SDS011;31053;55.870;37.592;2022-12-20T05:11:31;23.30;;;6.30;;
45316;SDS011;31053;55.870;37.592;2022-12-20T05:14:36;18.40;;;5.38;;
45316;SDS011;31053;55.870;37.592;2022-12-20T05:17:41;18.35;;;6.95;;
45316;SDS011;31053;55.870;37.592;2022-12-20T05:20:46;16.55;;;6.25;;
45316;SDS011;31053;55.870;37.592;2022-12-20T05:23:51;20.45;;;7.40;;
45316;SDS011;31053;55.870;37.592;2022-12-20T05:27:32;17.23;;;6.00;;
45316;SDS011;31053;55.870;37.592;2022-12-20T05:30:36;21.02;;;7.30;;
45316;SDS011;31053;55.870;37.592;2022-12-20T05:33:41;19.58;;;6.85;;
45316;SDS011;31053;55.870;37.592;2022-12-20T05:36:46;22.38;;;6.68;;
45316;SDS011;31053;55.870;37.592;2022-12-20T05:39:51;16.35;;;6.40;;
45316;SDS011;31053;55.870;37.592;2022-12-20T05:42:59;18.63;;;7.53;;
45316;SDS011;31053;55.870;37.592;2022-12-20T05:46:13;21.02;;;7.13;;
45316;SDS011;31053;55.870;37.592;2022-12-20T05:49:28;24.10;;;6.63;;
45316;SDS011;31053;55.870;37.592;2022-12-20T05:52:35;14.20;;;6.93;;
45316;SDS011;31053;55.870;37.592;2022-12-20T05:55:44;20.77;;;6.88;;
45316;SDS011;31053;55.870;37.592;2022-12-20T05:58:51;15.98;;;6.25;;
45316;SDS011;31053;55.870;37.592;2022-12-20T06:01:55;19.25;;;7.65;;
45316;SDS011;31053;55.870;37.592;2022-12-20T06:05:01;14.02;;;6.53;;
45316;SDS011;31053;55.870;37.592;2022-12-20T06:08:07;16.83;;;6.20;;
45316;SDS011;31053;55.870;37.592;2022-12-20T06:11:12;16.85;;;6.55;;
45316;SDS011;31053;55.870;37.592;2022-12-20T06:14:28;17.45;;;5.68;;
45316;SDS011;31053;55.870;37.592;2022-12-20T06:17:34;13.77;;;6.00;;
45316;SDS011;31053;55.870;37.592;2022-12-20T06:20:39;16.88;;;6.13;;
45316;SDS011;31053;55.870;37.592;2022-12-20T06:26:53;25.13;;;6.57;;
45316;SDS011;31053;55.870;37.592;2022-12-20T06:29:58;18.58;;;6.15;;
45316;SDS011;31053;55.870;37.592;2022-12-20T06:33:09;18.10;;;5.97;;
45316;SDS011;31053;55.870;37.592;2022-12-20T06:36:13;13.93;;;5.50;;
45316;SDS011;31053;55.870;37.592;2022-12-20T06:44:58;19.50;;;6.05;;
45316;SDS011;31053;55.870;37.592;2022-12-20T06:48:03;18.77;;;5.80;;
45316;SDS011;31053;55.870;37.592;2022-12-20T06:51:14;16.20;;;5.57;;
45316;SDS011;31053;55.870;37.592;2022-12-20T06:54:22;19.75;;;6.13;;
45316;SDS011;31053;55.870;37.592;2022-12-20T06:57:27;12.65;;;4.93;;
45316;SDS011;31053;55.870;37.592;2022-12-20T07:00:33;22.40;;;7.00;;
45316;SDS011;31053;55.870;37.592;2022-12-20T07:03:39;13.75;;;5.70;;
45316;SDS011;31053;55.870;37.592;2022-12-20T07:06:42;16.23;;;5.32;;
45316;SDS011;31053;55.870;37.592;2022-12-20T07:09:47;16.55;;;4.80;;
45316;SDS011;31053;55.870;37.592;2022-12-20T07:12:51;14.38;;;5.03;;
45316;SDS011;31053;55.870;37.592;2022-12-20T07:16:00;7.78;;;4.00;;
45316;SDS011;31053;55.870;37.592;2022-12-20T07:19:05;19.52;;;4.88;;
45316;SDS011;31053;55.870;37.592;2022-12-20T07:22:10;16.90;;;5.75;;
45316;SDS011;31053;55.870;37.592;2022-12-20T07:25:14;21.60;;;6.53;;
45316;SDS011;31053;55.870;37.592;2022-12-20T07:28:19;16.55;;;4.97;;
45316;SDS011;31053;55.870;37.592;2022-12-20T07:31:23;12.73;;;4.43;;
45316;SDS011;31053;55.870;37.592;2022-12-20T07:34:28;15.30;;;4.90;;
45316;SDS011;31053;55.870;37.592;2022-12-20T07:37:33;16.75;;;4.95;;
45316;SDS011;31053;55.870;37.592;2022-12-20T07:40:40;13.18;;;5.10;;
45316;SDS011;31053;55.870;37.592;2022-12-20T07:43:45;18.20;;;4.50;;
45316;SDS011;31053;55.870;37.592;2022-12-20T07:46:50;12.15;;;5.10;;
45316;SDS011;31053;55.870;37.592;2022-12-20T07:49:55;10.13;;;4.03;;
45316;SDS011;31053;55.870;37.592;2022-12-20T07:52:59;12.25;;;4.82;;
45316;SDS011;31053;55.870;37.592;2022-12-20T07:56:07;8.35;;;4.00;;
45316;SDS011;31053;55.870;37.592;2022-12-20T07:59:30;10.25;;;4.03;;
45316;SDS011;31053;55.870;37.592;2022-12-20T08:02:42;9.85;;;4.10;;
45316;SDS011;31053;55.870;37.592;2022-12-20T08:05:54;13.82;;;5.20;;
45316;SDS011;31053;55.870;37.592;2022-12-20T08:09:13;8.38;;;3.72;;
45316;SDS011;31053;55.870;37.592;2022-12-20T08:12:20;9.55;;;4.13;;
45316;SDS011;31053;55.870;37.592;2022-12-20T08:15:26;9.52;;;3.28;;
45316;SDS011;31053;55.870;37.592;2022-12-20T08:18:45;7.10;;;3.20;;
45316;SDS011;31053;55.870;37.592;2022-12-20T08:22:04;10.02;;;3.53;;
45316;SDS011;31053;55.870;37.592;2022-12-20T08:25:09;9.45;;;3.17;;
45316;SDS011;31053;55.870;37.592;2022-12-20T08:28:15;5.88;;;2.13;;
45316;SDS011;31053;55.870;37.592;2022-12-20T08:31:27;9.20;;;3.17;;
45316;SDS011;31053;55.870;37.592;2022-12-20T08:34:36;7.10;;;2.27;;
45316;SDS011;31053;55.870;37.592;2022-12-20T08:37:40;8.07;;;2.70;;
45316;SDS011;31053;55.870;37.592;2022-12-20T08:40:50;7.05;;;2.95;;
45316;SDS011;31053;55.870;37.592;2022-12-20T08:44:08;8.52;;;3.00;;
45316;SDS011;31053;55.870;37.592;2022-12-20T08:47:13;6.65;;;2.83;;
45316;SDS011;31053;55.870;37.592;2022-12-20T08:50:19;5.30;;;2.33;;
45316;SDS011;31053;55.870;37.592;2022-12-20T08:53:24;6.82;;;2.70;;
45316;SDS011;31053;55.870;37.592;2022-12-20T08:56:29;11.38;;;3.58;;
45316;SDS011;31053;55.870;37.592;2022-12-20T08:59:33;8.05;;;3.30;;
45316;SDS011;31053;55.870;37.592;2022-12-20T09:02:38;8.45;;;3.55;;
45316;SDS011;31053;55.870;37.592;2022-12-20T09:05:44;8.57;;;2.75;;
45316;SDS011;31053;55.870;37.592;2022-12-20T09:08:50;8.60;;;2.72;;
45316;SDS011;31053;55.870;37.592;2022-12-20T09:11:58;8.07;;;3.40;;
45316;SDS011;31053;55.870;37.592;2022-12-20T09:15:03;7.45;;;3.55;;
45316;SDS011;31053;55.870;37.592;2022-12-20T09:18:08;8.77;;;3.45;;
45316;SDS011;31053;55.870;37.592;2022-12-20T09:21:14;7.80;;;3.10;;
45316;SDS011;31053;55.870;37.592;2022-12-20T09:24:19;8.23;;;3.38;;
45316;SDS011;31053;55.870;37.592;2022-12-20T09:27:26;11.27;;;2.88;;
45316;SDS011;31053;55.870;37.592;2022-12-20T09:30:30;8.45;;;3.00;;
45316;SDS011;31053;55.870;37.592;2022-12-20T09:33:35;11.48;;;3.30;;
45316;SDS011;31053;55.870;37.592;2022-12-20T09:36:40;8.70;;;3.75;;
45316;SDS011;31053;55.870;37.592;2022-12-20T09:39:47;13.90;;;3.42;;
45316;SDS011;31053;55.870;37.592;2022-12-20T09:42:53;4.97;;;2.95;;
45316;SDS011;31053;55.870;37.592;2022-12-20T09:45:58;8.18;;;3.85;;
45316;SDS011;31053;55.870;37.592;2022-12-20T10:01:46;8.60;;;3.58;;
45316;SDS011;31053;55.870;37.592;2022-12-20T10:04:52;9.15;;;3.78;;
45316;SDS011;31053;55.870;37.592;2022-12-20T10:21:17;11.27;;;4.18;;
45316;SDS011;31053;55.870;37.592;2022-12-20T10:24:29;7.15;;;3.60;;
45316;SDS011;31053;55.870;37.592;2022-12-20T10:27:34;8.00;;;3.97;;
45316;SDS011;31053;55.870;37.592;2022-12-20T10:30:44;9.73;;;3.97;;
45316;SDS011;31053;55.870;37.592;2022-12-20T10:33:49;10.40;;;4.25;;
45316;SDS011;31053;55.870;37.592;2022-12-20T10:37:11;10.57;;;3.80;;
45316;SDS011;31053;55.870;37.592;2022-12-20T10:40:30;8.02;;;3.13;;
45316;SDS011;31053;55.870;37.592;2022-12-20T10:43:47;11.52;;;3.85;;
45316;SDS011;31053;55.870;37.592;2022-12-20T10:46:55;10.25;;;4.05;;
45316;SDS011;31053;55.870;37.592;2022-12-20T10:50:16;11.40;;;3.60;;
45316;SDS011;31053;55.870;37.592;2022-12-20T10:53:23;9.52;;;4.03;;
45316;SDS011;31053;55.870;37.592;2022-12-20T10:56:29;7.53;;;3.40;;
45316;SDS011;31053;55.870;37.592;2022-12-20T10:59:36;9.70;;;3.63;;
45316;SDS011;31053;55.870;37.592;2022-12-20T11:02:50;14.82;;;5.18;;
45316;SDS011;31053;55.870;37.592;2022-12-20T11:07:24;11.70;;;4.32;;
45316;SDS011;31053;55.870;37.592;2022-12-20T11:27:48;20.23;;;4.78;;
45316;SDS011;31053;55.870;37.592;2022-12-20T11:35:59;11.20;;;4.78;;
45316;SDS011;31053;55.870;37.592;2022-12-20T11:43:32;13.32;;;5.03;;
45316;SDS011;31053;55.870;37.592;2022-12-20T11:56:29;9.60;;;4.35;;
45316;SDS011;31053;55.870;37.592;2022-12-20T11:59:42;13.15;;;3.78;;
45316;SDS011;31053;55.870;37.592;2022-12-20T12:02:50;9.35;;;3.65;;
45316;SDS011;31053;55.870;37.592;2022-12-20T12:09:31;13.88;;;3.80;;
45316;SDS011;31053;55.870;37.592;2022-12-20T12:12:41;7.78;;;3.70;;
45316;SDS011;31053;55.870;37.592;2022-12-20T12:19:00;8.27;;;4.30;;
45316;SDS011;31053;55.870;37.592;2022-12-20T12:22:08;12.90;;;4.00;;
45316;SDS011;31053;55.870;37.592;2022-12-20T12:25:26;8.13;;;2.97;;
45316;SDS011;31053;55.870;37.592;2022-12-20T12:28:31;7.28;;;3.40;;
45316;SDS011;31053;55.870;37.592;2022-12-20T12:45:20;11.70;;;2.75;;
45316;SDS011;31053;55.870;37.592;2022-12-20T12:52:03;8.18;;;3.40;;
45316;SDS011;31053;55.870;37.592;2022-12-20T12:58:38;11.90;;;3.10;;
45316;SDS011;31053;55.870;37.592;2022-12-20T13:05:40;11.50;;;2.47;;
45316;SDS011;31053;55.870;37.592;2022-12-20T13:08:45;11.80;;;3.78;;
45316;SDS011;31053;55.870;37.592;2022-12-20T13:11:55;6.47;;;2.80;;
45316;SDS011;31053;55.870;37.592;2022-12-20T13:15:00;7.47;;;3.20;;
45316;SDS011;31053;55.870;37.592;2022-12-20T13:21:17;9.77;;;4.28;;
45316;SDS011;31053;55.870;37.592;2022-12-20T13:24:38;20.05;;;3.65;;
45316;SDS011;31053;55.870;37.592;2022-12-20T13:31:29;12.00;;;2.90;;
45316;SDS011;31053;55.870;37.592;2022-12-20T13:40:59;13.70;;;3.88;;
45316;SDS011;31053;55.870;37.592;2022-12-20T13:54:42;15.38;;;3.00;;
45316;SDS011;31053;55.870;37.592;2022-12-20T13:57:50;7.15;;;3.33;;
45316;SDS011;31053;55.870;37.592;2022-12-20T14:01:04;8.27;;;3.50;;
45316;SDS011;31053;55.870;37.592;2022-12-20T14:04:12;11.23;;;3.92;;
45316;SDS011;31053;55.870;37.592;2022-12-20T14:07:29;9.05;;;3.47;;
45316;SDS011;31053;55.870;37.592;2022-12-20T14:10:41;9.55;;;3.42;;
45316;SDS011;31053;55.870;37.592;2022-12-20T14:26:17;8.52;;;3.22;;
45316;SDS011;31053;55.870;37.592;2022-12-20T14:31:20;11.63;;;3.63;;
45316;SDS011;31053;55.870;37.592;2022-12-20T14:43:26;8.75;;;3.05;;
45316;SDS011;31053;55.870;37.592;2022-12-20T14:46:56;8.43;;;3.50;;
45316;SDS011;31053;55.870;37.592;2022-12-20T14:50:04;10.05;;;2.90;;
45316;SDS011;31053;55.870;37.592;2022-12-20T14:53:43;13.65;;;4.45;;
45316;SDS011;31053;55.870;37.592;2022-12-20T14:56:52;10.15;;;3.30;;
45316;SDS011;31053;55.870;37.592;2022-12-20T15:03:33;13.90;;;4.00;;
45316;SDS011;31053;55.870;37.592;2022-12-20T15:06:57;7.47;;;3.83;;
45316;SDS011;31053;55.870;37.592;2022-12-20T15:10:19;9.48;;;4.10;;
45316;SDS011;31053;55.870;37.592;2022-12-20T15:13:50;11.27;;;3.78;;
45316;SDS011;31053;55.870;37.592;2022-12-20T15:17:17;12.55;;;4.13;;
45316;SDS011;31053;55.870;37.592;2022-12-20T15:20:39;7.47;;;3.03;;
45316;SDS011;31053;55.870;37.592;2022-12-20T15:24:11;12.68;;;4.50;;
45316;SDS011;31053;55.870;37.592;2022-12-20T15:27:41;9.75;;;4.57;;
45316;SDS011;31053;55.870;37.592;2022-12-20T15:31:07;9.20;;;3.70;;
45316;SDS011;31053;55.870;37.592;2022-12-20T15:34:34;9.43;;;3.65;;
45316;SDS011;31053;55.870;37.592;2022-12-20T15:37:48;11.57;;;4.35;;
45316;SDS011;31053;55.870;37.592;2022-12-20T15:44:16;6.78;;;3.35;;
45316;SDS011;31053;55.870;37.592;2022-12-20T15:47:28;11.30;;;3.97;;
45316;SDS011;31053;55.870;37.592;2022-12-20T15:50:47;14.15;;;4.68;;
45316;SDS011;31053;55.870;37.592;2022-12-20T15:54:04;9.95;;;4.10;;
45316;SDS011;31053;55.870;37.592;2022-12-20T15:57:14;15.55;;;3.97;;
45316;SDS011;31053;55.870;37.592;2022-12-20T16:00:21;18.25;;;3.97;;
45316;SDS011;31053;55.870;37.592;2022-12-20T16:23:55;8.93;;;4.05;;
45316;SDS011;31053;55.870;37.592;2022-12-20T16:27:09;8.68;;;3.90;;
45316;SDS011;31053;55.870;37.592;2022-12-20T16:35:00;9.15;;;3.35;;
45316;SDS011;31053;55.870;37.592;2022-12-20T16:38:11;11.15;;;4.07;;
45316;SDS011;31053;55.870;37.592;2022-12-20T16:41:20;9.38;;;3.40;;
45316;SDS011;31053;55.870;37.592;2022-12-20T16:45:05;11.85;;;3.97;;
45316;SDS011;31053;55.870;37.592;2022-12-20T16:48:35;14.13;;;4.18;;
45316;SDS011;31053;55.870;37.592;2022-12-20T16:51:50;14.50;;;5.47;;
45316;SDS011;31053;55.870;37.592;2022-12-20T16:55:00;11.60;;;4.22;;
45316;SDS011;31053;55.870;37.592;2022-12-20T16:58:53;11.20;;;4.65;;
45316;SDS011;31053;55.870;37.592;2022-12-20T17:13:50;11.15;;;3.78;;
45316;SDS011;31053;55.870;37.592;2022-12-20T17:17:48;12.43;;;4.55;;
45316;SDS011;31053;55.870;37.592;2022-12-20T17:21:23;14.10;;;4.00;;
45316;SDS011;31053;55.870;37.592;2022-12-20T17:28:46;17.50;;;5.05;;
45316;SDS011;31053;55.870;37.592;2022-12-20T17:32:16;10.52;;;4.07;;
45316;SDS011;31053;55.870;37.592;2022-12-20T17:35:27;12.75;;;4.60;;
45316;SDS011;31053;55.870;37.592;2022-12-20T17:38:34;10.07;;;4.18;;
45316;SDS011;31053;55.870;37.592;2022-12-20T17:41:56;12.57;;;4.70;;
45316;SDS011;31053;55.870;37.592;2022-12-20T17:45:31;12.73;;;4.32;;
45316;SDS011;31053;55.870;37.592;2022-12-20T17:48:42;12.43;;;4.30;;
45316;SDS011;31053;55.870;37.592;2022-12-20T17:52:03;11.90;;;4.80;;
45316;SDS011;31053;55.870;37.592;2022-12-20T17:55:25;14.77;;;4.32;;
45316;SDS011;31053;55.870;37.592;2022-12-20T17:58:35;15.13;;;5.03;;
45316;SDS011;31053;55.870;37.592;2022-12-20T18:01:45;12.15;;;4.30;;
45316;SDS011;31053;55.870;37.592;2022-12-20T18:05:19;10.73;;;4.88;;
45316;SDS011;31053;55.870;37.592;2022-12-20T18:08:49;8.50;;;3.83;;
45316;SDS011;31053;55.870;37.592;2022-12-20T18:11:56;7.85;;;3.58;;
45316;SDS011;31053;55.870;37.592;2022-12-20T18:15:10;11.75;;;4.65;;
45316;SDS011;31053;55.870;37.592;2022-12-20T18:18:28;12.95;;;4.10;;
45316;SDS011;31053;55.870;37.592;2022-12-20T18:21:41;11.98;;;4.15;;
45316;SDS011;31053;55.870;37.592;2022-12-20T18:24:51;13.55;;;4.95;;
45316;SDS011;31053;55.870;37.592;2022-12-20T18:28:01;12.60;;;4.95;;
45316;SDS011;31053;55.870;37.592;2022-12-20T18:31:39;14.38;;;5.63;;
45316;SDS011;31053;55.870;37.592;2022-12-20T18:34:54;12.75;;;5.22;;
45316;SDS011;31053;55.870;37.592;2022-12-20T18:38:12;19.33;;;5.43;;
45316;SDS011;31053;55.870;37.592;2022-12-20T18:41:32;12.82;;;3.97;;
45316;SDS011;31053;55.870;37.592;2022-12-20T18:44:50;12.98;;;5.72;;
45316;SDS011;31053;55.870;37.592;2022-12-20T18:59:25;14.43;;;5.57;;
45316;SDS011;31053;55.870;37.592;2022-12-20T19:02:31;10.02;;;4.00;;
45316;SDS011;31053;55.870;37.592;2022-12-20T19:06:26;8.52;;;3.38;;
45316;SDS011;31053;55.870;37.592;2022-12-20T19:10:33;12.63;;;5.20;;
45316;SDS011;31053;55.870;37.592;2022-12-20T19:13:40;13.27;;;5.03;;
45316;SDS011;31053;55.870;37.592;2022-12-20T19:17:12;8.73;;;4.32;;
45316;SDS011;31053;55.870;37.592;2022-12-20T19:20:48;19.17;;;5.57;;
45316;SDS011;31053;55.870;37.592;2022-12-20T19:28:41;9.93;;;4.60;;
45316;SDS011;31053;55.870;37.592;2022-12-20T19:31:48;13.73;;;5.32;;
45316;SDS011;31053;55.870;37.592;2022-12-20T19:39:49;18.30;;;6.43;;
45316;SDS011;31053;55.870;37.592;2022-12-20T19:43:19;10.68;;;4.95;;
45316;SDS011;31053;55.870;37.592;2022-12-20T19:46:35;12.70;;;4.32;;
45316;SDS011;31053;55.870;37.592;2022-12-20T19:49:50;16.17;;;4.18;;
45316;SDS011;31053;55.870;37.592;2022-12-20T19:53:25;11.05;;;4.35;;
45316;SDS011;31053;55.870;37.592;2022-12-20T19:56:37;15.55;;;4.97;;
45316;SDS011;31053;55.870;37.592;2022-12-20T20:00:30;18.17;;;6.03;;
45316;SDS011;31053;55.870;37.592;2022-12-20T21:29:44;19.38;;;6.43;;
45316;SDS011;31053;55.870;37.592;2022-12-20T21:37:29;19.88;;;7.88;;
45316;SDS011;31053;55.870;37.592;2022-12-20T21:40:59;21.35;;;6.85;;
45316;SDS011;31053;55.870;37.592;2022-12-20T21:44:05;19.15;;;6.82;;
45316;SDS011;31053;55.870;37.592;2022-12-20T21:47:13;17.63;;;5.93;;
45316;SDS011;31053;55.870;37.592;2022-12-20T21:50:18;19.03;;;7.10;;
45316;SDS011;31053;55.870;37.592;2022-12-20T21:53:22;17.63;;;5.93;;
45316;SDS011;31053;55.870;37.592;2022-12-20T21:56:28;22.33;;;7.10;;
45316;SDS011;31053;55.870;37.592;2022-12-20T21:59:35;18.70;;;6.55;;
45316;SDS011;31053;55.870;37.592;2022-12-20T22:02:40;18.50;;;5.40;;
45316;SDS011;31053;55.870;37.592;2022-12-20T22:05:46;12.93;;;4.80;;
45316;SDS011;31053;55.870;37.592;2022-12-20T22:08:52;12.10;;;5.05;;
45316;SDS011;31053;55.870;37.592;2022-12-20T22:11:59;21.85;;;9.00;;
45316;SDS011;31053;55.870;37.592;2022-12-20T22:15:05;25.35;;;7.03;;
45316;SDS011;31053;55.870;37.592;2022-12-20T22:18:13;17.52;;;5.05;;
45316;SDS011;31053;55.870;37.592;2022-12-20T22:21:19;11.93;;;5.55;;
45316;SDS011;31053;55.870;37.592;2022-12-20T22:24:28;12.55;;;4.43;;
45316;SDS011;31053;55.870;37.592;2022-12-20T22:27:33;18.65;;;5.90;;
45316;SDS011;31053;55.870;37.592;2022-12-20T22:30:41;9.77;;;3.67;;
45316;SDS011;31053;55.870;37.592;2022-12-20T22:33:46;17.45;;;4.78;;
45316;SDS011;31053;55.870;37.592;2022-12-20T22:36:51;23.77;;;7.80;;
45316;SDS011;31053;55.870;37.592;2022-12-20T22:43:02;14.20;;;4.68;;
45316;SDS011;31053;55.870;37.592;2022-12-20T22:46:07;11.43;;;4.72;;
45316;SDS011;31053;55.870;37.592;2022-12-20T22:49:15;10.40;;;4.22;;
45316;SDS011;31053;55.870;37.592;2022-12-20T22:52:21;13.57;;;5.20;;
45316;SDS011;31053;55.870;37.592;2022-12-20T22:55:26;21.33;;;8.23;;
45316;SDS011;31053;55.870;37.592;2022-12-20T22:58:32;15.93;;;5.80;;
45316;SDS011;31053;55.870;37.592;2022-12-20T23:01:40;29.73;;;9.43;;
45316;SDS011;31053;55.870;37.592;2022-12-20T23:04:48;26.25;;;9.38;;
45316;SDS011;31053;55.870;37.592;2022-12-20T23:07:54;26.75;;;9.73;;
45316;SDS011;31053;55.870;37.592;2022-12-20T23:11:00;19.25;;;6.47;;
45316;SDS011;31053;55.870;37.592;2022-12-20T23:14:24;24.55;;;7.82;;
45316;SDS011;31053;55.870;37.592;2022-12-20T23:17:50;19.25;;;6.30;;
45316;SDS011;31053;55.870;37.592;2022-12-20T23:20:55;13.40;;;5.68;;
45316;SDS011;31053;55.870;37.592;2022-12-20T23:24:17;22.77;;;6.72;;
45316;SDS011;31053;55.870;37.592;2022-12-20T23:27:24;16.02;;;6.85;;
45316;SDS011;31053;55.870;37.592;2022-12-20T23:30:34;15.07;;;5.80;;
45316;SDS011;31053;55.870;37.592;2022-12-20T23:33:39;14.70;;;4.80;;
45316;SDS011;31053;55.870;37.592;2022-12-20T23:36:44;16.50;;;5.63;;
45316;SDS011;31053;55.870;37.592;2022-12-20T23:39:49;23.02;;;7.43;;
45316;SDS011;31053;55.870;37.592;2022-12-20T23:42:53;12.20;;;4.43;;
45316;SDS011;31053;55.870;37.592;2022-12-20T23:46:05;17.40;;;5.35;;
45316;SDS011;31053;55.870;37.592;2022-12-20T23:49:12;20.35;;;6.90;;
45316;SDS011;31053;55.870;37.592;2022-12-20T23:52:17;22.63;;;6.70;;
45316;SDS011;31053;55.870;37.592;2022-12-20T23:55:22;10.73;;;4.40;;
45316;SDS011;31053;55.870;37.592;2022-12-20T23:58:27;12.93;;;4.80;;
